sensor_id;sensor_type;location;lat;lon;timestamp;P1;durP1;ratioP1;P2;durP2;ratioP2
34433;SDS011;34290;48.562;13.384;2022-09-09T00:00:18;3.03;;;1.70;;
34433;SDS011;34290;48.562;13.384;2022-09-09T00:02:48;4.35;;;1.50;;
34433;SDS011;34290;48.562;13.384;2022-09-09T00:05:23;4.28;;;1.33;;
34433;SDS011;34290;48.562;13.384;2022-09-09T00:07:58;2.97;;;1.63;;
34433;SDS011;34290;48.562;13.384;2022-09-09T00:10:29;2.97;;;1.75;;
34433;SDS011;34290;48.562;13.384;2022-09-09T00:13:04;4.27;;;1.43;;
34433;SDS011;34290;48.562;13.384;2022-09-09T00:15:42;3.63;;;1.70;;
34433;SDS011;34290;48.562;13.384;2022-09-09T00:18:21;3.53;;;1.53;;
34433;SDS011;34290;48.562;13.384;2022-09-09T00:20:55;6.93;;;3.50;;
34433;SDS011;34290;48.562;13.384;2022-09-09T00:23:28;3.80;;;2.00;;
34433;SDS011;34290;48.562;13.384;2022-09-09T00:25:59;3.30;;;2.20;;
34433;SDS011;34290;48.562;13.384;2022-09-09T00:28:33;6.47;;;3.10;;
34433;SDS011;34290;48.562;13.384;2022-09-09T00:31:08;3.17;;;2.40;;
34433;SDS011;34290;48.562;13.384;2022-09-09T00:33:38;7.10;;;2.20;;
34433;SDS011;34290;48.562;13.384;2022-09-09T00:36:10;3.23;;;2.30;;
34433;SDS011;34290;48.562;13.384;2022-09-09T00:38:42;2.60;;;1.90;;
34433;SDS011;34290;48.562;13.384;2022-09-09T00:41:11;7.00;;;3.07;;
34433;SDS011;34290;48.562;13.384;2022-09-09T00:43:46;4.67;;;2.20;;
34433;SDS011;34290;48.562;13.384;2022-09-09T00:46:29;9.30;;;2.93;;
34433;SDS011;34290;48.562;13.384;2022-09-09T00:49:11;6.17;;;3.00;;
34433;SDS011;34290;48.562;13.384;2022-09-09T00:51:46;4.97;;;2.97;;
34433;SDS011;34290;48.562;13.384;2022-09-09T00:54:28;5.22;;;2.40;;
34433;SDS011;34290;48.562;13.384;2022-09-09T00:57:07;3.43;;;2.43;;
34433;SDS011;34290;48.562;13.384;2022-09-09T00:59:47;4.70;;;2.50;;
34433;SDS011;34290;48.562;13.384;2022-09-09T01:02:19;3.60;;;2.70;;
34433;SDS011;34290;48.562;13.384;2022-09-09T01:04:53;2.83;;;2.23;;
34433;SDS011;34290;48.562;13.384;2022-09-09T01:07:21;2.60;;;2.10;;
34433;SDS011;34290;48.562;13.384;2022-09-09T01:09:52;3.03;;;2.23;;
34433;SDS011;34290;48.562;13.384;2022-09-09T01:12:28;3.30;;;2.30;;
34433;SDS011;34290;48.562;13.384;2022-09-09T01:15:09;6.67;;;2.30;;
34433;SDS011;34290;48.562;13.384;2022-09-09T01:17:44;9.80;;;2.97;;
34433;SDS011;34290;48.562;13.384;2022-09-09T01:20:17;8.70;;;2.63;;
34433;SDS011;34290;48.562;13.384;2022-09-09T01:22:57;9.80;;;3.10;;
34433;SDS011;34290;48.562;13.384;2022-09-09T01:28:39;12.63;;;3.23;;
34433;SDS011;34290;48.562;13.384;2022-09-09T01:31:09;8.00;;;3.53;;
34433;SDS011;34290;48.562;13.384;2022-09-09T01:33:40;27.87;;;4.90;;
34433;SDS011;34290;48.562;13.384;2022-09-09T01:36:08;29.37;;;4.20;;
34433;SDS011;34290;48.562;13.384;2022-09-09T01:38:39;18.37;;;3.87;;
34433;SDS011;34290;48.562;13.384;2022-09-09T01:41:07;15.20;;;4.10;;
34433;SDS011;34290;48.562;13.384;2022-09-09T01:43:35;13.77;;;3.30;;
34433;SDS011;34290;48.562;13.384;2022-09-09T01:46:03;12.43;;;3.60;;
34433;SDS011;34290;48.562;13.384;2022-09-09T01:48:30;8.90;;;3.40;;
34433;SDS011;34290;48.562;13.384;2022-09-09T01:50:58;19.40;;;3.60;;
34433;SDS011;34290;48.562;13.384;2022-09-09T01:53:25;17.90;;;4.33;;
34433;SDS011;34290;48.562;13.384;2022-09-09T01:55:55;31.73;;;6.17;;
34433;SDS011;34290;48.562;13.384;2022-09-09T01:58:37;30.20;;;5.83;;
34433;SDS011;34290;48.562;13.384;2022-09-09T02:01:15;25.50;;;4.50;;
34433;SDS011;34290;48.562;13.384;2022-09-09T02:03:52;17.77;;;4.05;;
34433;SDS011;34290;48.562;13.384;2022-09-09T02:06:25;20.92;;;3.88;;
34433;SDS011;34290;48.562;13.384;2022-09-09T02:08:55;24.97;;;3.60;;
34433;SDS011;34290;48.562;13.384;2022-09-09T02:11:25;17.00;;;3.58;;
34433;SDS011;34290;48.562;13.384;2022-09-09T02:13:57;20.07;;;3.87;;
34433;SDS011;34290;48.562;13.384;2022-09-09T02:16:28;25.57;;;3.73;;
34433;SDS011;34290;48.562;13.384;2022-09-09T02:19:00;19.13;;;4.80;;
34433;SDS011;34290;48.562;13.384;2022-09-09T02:21:30;32.93;;;4.27;;
34433;SDS011;34290;48.562;13.384;2022-09-09T02:24:00;25.23;;;3.90;;
34433;SDS011;34290;48.562;13.384;2022-09-09T02:26:30;15.60;;;3.73;;
34433;SDS011;34290;48.562;13.384;2022-09-09T02:29:02;17.80;;;3.50;;
34433;SDS011;34290;48.562;13.384;2022-09-09T02:31:33;19.50;;;4.00;;
34433;SDS011;34290;48.562;13.384;2022-09-09T02:34:03;19.73;;;4.83;;
34433;SDS011;34290;48.562;13.384;2022-09-09T02:36:36;17.90;;;4.20;;
34433;SDS011;34290;48.562;13.384;2022-09-09T02:39:05;20.73;;;4.33;;
34433;SDS011;34290;48.562;13.384;2022-09-09T02:41:35;15.07;;;4.17;;
34433;SDS011;34290;48.562;13.384;2022-09-09T02:44:08;16.57;;;4.43;;
34433;SDS011;34290;48.562;13.384;2022-09-09T02:46:38;6.80;;;3.70;;
34433;SDS011;34290;48.562;13.384;2022-09-09T02:49:25;14.90;;;4.20;;
34433;SDS011;34290;48.562;13.384;2022-09-09T02:52:00;9.93;;;3.87;;
34433;SDS011;34290;48.562;13.384;2022-09-09T02:54:32;29.50;;;5.67;;
34433;SDS011;34290;48.562;13.384;2022-09-09T02:57:01;15.80;;;4.03;;
34433;SDS011;34290;48.562;13.384;2022-09-09T02:59:34;10.87;;;3.70;;
34433;SDS011;34290;48.562;13.384;2022-09-09T03:02:01;18.10;;;4.20;;
34433;SDS011;34290;48.562;13.384;2022-09-09T03:04:28;13.67;;;3.77;;
34433;SDS011;34290;48.562;13.384;2022-09-09T03:06:56;12.60;;;3.80;;
34433;SDS011;34290;48.562;13.384;2022-09-09T03:09:23;13.40;;;3.75;;
34433;SDS011;34290;48.562;13.384;2022-09-09T03:11:51;13.90;;;3.87;;
34433;SDS011;34290;48.562;13.384;2022-09-09T03:14:20;20.17;;;4.30;;
34433;SDS011;34290;48.562;13.384;2022-09-09T03:16:51;9.70;;;3.90;;
34433;SDS011;34290;48.562;13.384;2022-09-09T03:19:18;7.57;;;3.40;;
34433;SDS011;34290;48.562;13.384;2022-09-09T03:21:45;11.32;;;3.53;;
34433;SDS011;34290;48.562;13.384;2022-09-09T03:24:12;11.30;;;3.75;;
34433;SDS011;34290;48.562;13.384;2022-09-09T03:26:40;8.95;;;3.80;;
34433;SDS011;34290;48.562;13.384;2022-09-09T03:29:09;11.33;;;4.13;;
34433;SDS011;34290;48.562;13.384;2022-09-09T03:31:37;13.13;;;3.97;;
34433;SDS011;34290;48.562;13.384;2022-09-09T03:34:05;8.45;;;3.42;;
34433;SDS011;34290;48.562;13.384;2022-09-09T03:36:32;10.10;;;3.50;;
34433;SDS011;34290;48.562;13.384;2022-09-09T03:38:59;12.23;;;3.42;;
34433;SDS011;34290;48.562;13.384;2022-09-09T03:41:28;37.45;;;4.28;;
34433;SDS011;34290;48.562;13.384;2022-09-09T03:43:55;9.07;;;3.43;;
34433;SDS011;34290;48.562;13.384;2022-09-09T03:46:23;16.17;;;3.58;;
34433;SDS011;34290;48.562;13.384;2022-09-09T03:48:51;18.43;;;3.90;;
34433;SDS011;34290;48.562;13.384;2022-09-09T03:51:19;11.13;;;3.77;;
34433;SDS011;34290;48.562;13.384;2022-09-09T03:53:47;12.93;;;4.20;;
34433;SDS011;34290;48.562;13.384;2022-09-09T03:56:14;11.57;;;4.63;;
34433;SDS011;34290;48.562;13.384;2022-09-09T03:58:41;30.90;;;5.50;;
34433;SDS011;34290;48.562;13.384;2022-09-09T04:01:09;18.00;;;5.07;;
34433;SDS011;34290;48.562;13.384;2022-09-09T04:03:38;42.43;;;6.97;;
34433;SDS011;34290;48.562;13.384;2022-09-09T04:06:06;33.90;;;4.93;;
34433;SDS011;34290;48.562;13.384;2022-09-09T04:08:36;13.77;;;5.40;;
34433;SDS011;34290;48.562;13.384;2022-09-09T04:11:03;36.63;;;6.50;;
34433;SDS011;34290;48.562;13.384;2022-09-09T04:13:32;38.10;;;6.60;;
34433;SDS011;34290;48.562;13.384;2022-09-09T04:16:00;61.47;;;6.60;;
34433;SDS011;34290;48.562;13.384;2022-09-09T04:18:29;9.60;;;4.55;;
34433;SDS011;34290;48.562;13.384;2022-09-09T04:20:56;17.27;;;5.03;;
34433;SDS011;34290;48.562;13.384;2022-09-09T04:23:24;21.13;;;4.50;;
34433;SDS011;34290;48.562;13.384;2022-09-09T04:25:55;32.10;;;5.20;;
34433;SDS011;34290;48.562;13.384;2022-09-09T04:28:24;20.40;;;5.00;;
34433;SDS011;34290;48.562;13.384;2022-09-09T04:30:52;22.27;;;4.77;;
34433;SDS011;34290;48.562;13.384;2022-09-09T04:33:19;17.53;;;5.60;;
34433;SDS011;34290;48.562;13.384;2022-09-09T04:35:47;29.63;;;5.90;;
34433;SDS011;34290;48.562;13.384;2022-09-09T04:38:15;20.10;;;5.13;;
34433;SDS011;34290;48.562;13.384;2022-09-09T04:40:43;19.40;;;5.40;;
34433;SDS011;34290;48.562;13.384;2022-09-09T04:43:13;101.40;;;8.90;;
34433;SDS011;34290;48.562;13.384;2022-09-09T04:45:41;26.23;;;5.30;;
34433;SDS011;34290;48.562;13.384;2022-09-09T04:48:08;17.30;;;5.27;;
34433;SDS011;34290;48.562;13.384;2022-09-09T04:50:36;21.43;;;5.20;;
34433;SDS011;34290;48.562;13.384;2022-09-09T04:53:03;35.43;;;7.23;;
34433;SDS011;34290;48.562;13.384;2022-09-09T04:55:31;17.73;;;4.73;;
34433;SDS011;34290;48.562;13.384;2022-09-09T04:58:02;19.33;;;5.00;;
34433;SDS011;34290;48.562;13.384;2022-09-09T05:00:31;19.70;;;6.00;;
34433;SDS011;34290;48.562;13.384;2022-09-09T05:03:02;15.47;;;5.80;;
34433;SDS011;34290;48.562;13.384;2022-09-09T05:05:30;17.20;;;5.70;;
34433;SDS011;34290;48.562;13.384;2022-09-09T05:08:00;22.13;;;5.85;;
34433;SDS011;34290;48.562;13.384;2022-09-09T05:10:28;27.77;;;6.93;;
34433;SDS011;34290;48.562;13.384;2022-09-09T05:12:55;25.30;;;7.10;;
34433;SDS011;34290;48.562;13.384;2022-09-09T05:15:22;37.67;;;8.23;;
34433;SDS011;34290;48.562;13.384;2022-09-09T05:17:51;28.60;;;7.37;;
34433;SDS011;34290;48.562;13.384;2022-09-09T05:20:18;17.50;;;7.17;;
34433;SDS011;34290;48.562;13.384;2022-09-09T05:22:46;16.23;;;7.60;;
34433;SDS011;34290;48.562;13.384;2022-09-09T05:25:14;16.13;;;7.65;;
34433;SDS011;34290;48.562;13.384;2022-09-09T05:27:41;24.90;;;9.60;;
34433;SDS011;34290;48.562;13.384;2022-09-09T05:30:08;22.00;;;8.50;;
34433;SDS011;34290;48.562;13.384;2022-09-09T05:32:36;14.50;;;7.20;;
34433;SDS011;34290;48.562;13.384;2022-09-09T05:35:04;21.70;;;9.43;;
34433;SDS011;34290;48.562;13.384;2022-09-09T05:37:31;25.47;;;10.03;;
34433;SDS011;34290;48.562;13.384;2022-09-09T05:39:58;23.63;;;10.30;;
34433;SDS011;34290;48.562;13.384;2022-09-09T05:42:29;20.80;;;9.73;;
34433;SDS011;34290;48.562;13.384;2022-09-09T05:44:57;21.10;;;9.67;;
34433;SDS011;34290;48.562;13.384;2022-09-09T05:47:23;21.33;;;9.53;;
34433;SDS011;34290;48.562;13.384;2022-09-09T05:49:52;23.20;;;9.13;;
34433;SDS011;34290;48.562;13.384;2022-09-09T05:52:21;23.43;;;9.90;;
34433;SDS011;34290;48.562;13.384;2022-09-09T05:54:50;27.48;;;10.52;;
34433;SDS011;34290;48.562;13.384;2022-09-09T05:57:19;27.13;;;10.60;;
34433;SDS011;34290;48.562;13.384;2022-09-09T05:59:46;27.67;;;10.33;;
34433;SDS011;34290;48.562;13.384;2022-09-09T06:02:13;25.13;;;10.43;;
34433;SDS011;34290;48.562;13.384;2022-09-09T06:04:40;33.30;;;12.32;;
34433;SDS011;34290;48.562;13.384;2022-09-09T06:07:07;33.97;;;11.95;;
34433;SDS011;34290;48.562;13.384;2022-09-09T06:09:35;30.60;;;11.17;;
34433;SDS011;34290;48.562;13.384;2022-09-09T06:12:02;26.17;;;12.77;;
34433;SDS011;34290;48.562;13.384;2022-09-09T06:14:29;18.75;;;8.52;;
34433;SDS011;34290;48.562;13.384;2022-09-09T06:16:57;24.30;;;11.25;;
34433;SDS011;34290;48.562;13.384;2022-09-09T06:19:24;28.67;;;11.30;;
34433;SDS011;34290;48.562;13.384;2022-09-09T06:21:52;29.10;;;11.63;;
34433;SDS011;34290;48.562;13.384;2022-09-09T06:24:19;24.53;;;10.90;;
34433;SDS011;34290;48.562;13.384;2022-09-09T06:26:48;21.87;;;9.70;;
34433;SDS011;34290;48.562;13.384;2022-09-09T06:29:15;23.70;;;10.15;;
34433;SDS011;34290;48.562;13.384;2022-09-09T06:31:42;17.10;;;7.53;;
34433;SDS011;34290;48.562;13.384;2022-09-09T06:34:09;14.57;;;7.57;;
34433;SDS011;34290;48.562;13.384;2022-09-09T06:36:37;22.20;;;9.63;;
34433;SDS011;34290;48.562;13.384;2022-09-09T06:39:05;21.30;;;8.87;;
34433;SDS011;34290;48.562;13.384;2022-09-09T06:41:33;24.20;;;11.63;;
34433;SDS011;34290;48.562;13.384;2022-09-09T06:44:03;32.42;;;13.52;;
34433;SDS011;34290;48.562;13.384;2022-09-09T06:46:30;24.33;;;10.40;;
34433;SDS011;34290;48.562;13.384;2022-09-09T06:48:58;25.17;;;11.43;;
34433;SDS011;34290;48.562;13.384;2022-09-09T06:51:26;26.75;;;11.25;;
34433;SDS011;34290;48.562;13.384;2022-09-09T06:53:54;28.15;;;12.40;;
34433;SDS011;34290;48.562;13.384;2022-09-09T06:56:23;29.48;;;12.20;;
34433;SDS011;34290;48.562;13.384;2022-09-09T06:58:53;29.33;;;13.25;;
34433;SDS011;34290;48.562;13.384;2022-09-09T07:01:23;28.73;;;12.85;;
34433;SDS011;34290;48.562;13.384;2022-09-09T07:03:51;27.65;;;12.95;;
34433;SDS011;34290;48.562;13.384;2022-09-09T07:06:20;26.17;;;11.13;;
34433;SDS011;34290;48.562;13.384;2022-09-09T07:08:49;23.35;;;10.57;;
34433;SDS011;34290;48.562;13.384;2022-09-09T07:11:17;22.50;;;10.32;;
34433;SDS011;34290;48.562;13.384;2022-09-09T07:13:45;27.92;;;12.52;;
34433;SDS011;34290;48.562;13.384;2022-09-09T07:16:13;29.25;;;13.52;;
34433;SDS011;34290;48.562;13.384;2022-09-09T07:18:43;27.90;;;11.88;;
34433;SDS011;34290;48.562;13.384;2022-09-09T07:21:11;34.22;;;12.73;;
34433;SDS011;34290;48.562;13.384;2022-09-09T07:23:39;24.42;;;11.98;;
34433;SDS011;34290;48.562;13.384;2022-09-09T07:26:07;23.73;;;12.23;;
34433;SDS011;34290;48.562;13.384;2022-09-09T07:28:35;27.35;;;11.88;;
34433;SDS011;34290;48.562;13.384;2022-09-09T07:31:04;26.10;;;12.48;;
34433;SDS011;34290;48.562;13.384;2022-09-09T07:33:32;29.35;;;12.45;;
34433;SDS011;34290;48.562;13.384;2022-09-09T07:36:06;29.65;;;12.77;;
34433;SDS011;34290;48.562;13.384;2022-09-09T07:38:38;25.73;;;12.77;;
34433;SDS011;34290;48.562;13.384;2022-09-09T07:41:06;28.15;;;13.02;;
34433;SDS011;34290;48.562;13.384;2022-09-09T07:43:37;27.33;;;12.35;;
34433;SDS011;34290;48.562;13.384;2022-09-09T07:46:05;26.92;;;12.57;;
34433;SDS011;34290;48.562;13.384;2022-09-09T07:48:32;24.27;;;12.27;;
34433;SDS011;34290;48.562;13.384;2022-09-09T07:51:08;26.13;;;12.73;;
34433;SDS011;34290;48.562;13.384;2022-09-09T07:53:37;28.13;;;13.00;;
34433;SDS011;34290;48.562;13.384;2022-09-09T07:56:05;24.10;;;12.23;;
34433;SDS011;34290;48.562;13.384;2022-09-09T07:58:34;25.75;;;12.13;;
34433;SDS011;34290;48.562;13.384;2022-09-09T08:01:05;24.05;;;12.07;;
34433;SDS011;34290;48.562;13.384;2022-09-09T08:03:33;21.25;;;10.95;;
34433;SDS011;34290;48.562;13.384;2022-09-09T08:06:00;22.30;;;10.40;;
34433;SDS011;34290;48.562;13.384;2022-09-09T08:08:29;22.10;;;10.45;;
34433;SDS011;34290;48.562;13.384;2022-09-09T08:11:03;22.67;;;10.90;;
34433;SDS011;34290;48.562;13.384;2022-09-09T08:13:32;27.08;;;11.00;;
34433;SDS011;34290;48.562;13.384;2022-09-09T08:16:09;23.10;;;10.93;;
34433;SDS011;34290;48.562;13.384;2022-09-09T08:18:38;22.05;;;10.18;;
34433;SDS011;34290;48.562;13.384;2022-09-09T08:21:07;17.30;;;9.52;;
34433;SDS011;34290;48.562;13.384;2022-09-09T08:23:38;19.00;;;9.98;;
34433;SDS011;34290;48.562;13.384;2022-09-09T08:26:06;19.95;;;10.02;;
34433;SDS011;34290;48.562;13.384;2022-09-09T08:28:36;21.00;;;9.45;;
34433;SDS011;34290;48.562;13.384;2022-09-09T08:31:05;18.52;;;9.73;;
34433;SDS011;34290;48.562;13.384;2022-09-09T08:33:34;17.88;;;8.98;;
34433;SDS011;34290;48.562;13.384;2022-09-09T08:36:03;17.45;;;9.10;;
34433;SDS011;34290;48.562;13.384;2022-09-09T08:38:32;14.32;;;8.57;;
34433;SDS011;34290;48.562;13.384;2022-09-09T08:41:04;17.75;;;9.07;;
34433;SDS011;34290;48.562;13.384;2022-09-09T08:43:43;15.88;;;8.88;;
34433;SDS011;34290;48.562;13.384;2022-09-09T08:46:15;16.08;;;8.10;;
34433;SDS011;34290;48.562;13.384;2022-09-09T08:48:52;16.02;;;8.18;;
34433;SDS011;34290;48.562;13.384;2022-09-09T08:51:23;16.88;;;8.73;;
34433;SDS011;34290;48.562;13.384;2022-09-09T08:53:52;18.50;;;8.95;;
34433;SDS011;34290;48.562;13.384;2022-09-09T08:56:23;16.05;;;8.10;;
34433;SDS011;34290;48.562;13.384;2022-09-09T08:58:52;19.10;;;8.73;;
34433;SDS011;34290;48.562;13.384;2022-09-09T09:01:33;14.73;;;7.95;;
34433;SDS011;34290;48.562;13.384;2022-09-09T09:04:11;21.27;;;8.70;;
34433;SDS011;34290;48.562;13.384;2022-09-09T09:06:50;15.85;;;8.20;;
34433;SDS011;34290;48.562;13.384;2022-09-09T09:09:29;12.27;;;7.00;;
34433;SDS011;34290;48.562;13.384;2022-09-09T09:12:08;16.05;;;7.50;;
34433;SDS011;34290;48.562;13.384;2022-09-09T09:14:41;15.00;;;7.47;;
34433;SDS011;34290;48.562;13.384;2022-09-09T09:17:11;17.02;;;7.50;;
34433;SDS011;34290;48.562;13.384;2022-09-09T09:19:41;14.50;;;7.18;;
34433;SDS011;34290;48.562;13.384;2022-09-09T09:22:14;13.65;;;6.72;;
34433;SDS011;34290;48.562;13.384;2022-09-09T09:24:47;15.23;;;6.85;;
34433;SDS011;34290;48.562;13.384;2022-09-09T09:27:21;14.40;;;6.53;;
34433;SDS011;34290;48.562;13.384;2022-09-09T09:29:56;11.15;;;6.70;;
34433;SDS011;34290;48.562;13.384;2022-09-09T09:32:25;14.23;;;6.80;;
34433;SDS011;34290;48.562;13.384;2022-09-09T09:34:57;10.82;;;6.30;;
34433;SDS011;34290;48.562;13.384;2022-09-09T09:37:28;10.30;;;5.82;;
34433;SDS011;34290;48.562;13.384;2022-09-09T09:40:07;12.70;;;6.25;;
34433;SDS011;34290;48.562;13.384;2022-09-09T09:42:36;11.80;;;6.50;;
34433;SDS011;34290;48.562;13.384;2022-09-09T09:45:08;12.48;;;6.75;;
34433;SDS011;34290;48.562;13.384;2022-09-09T09:47:43;13.65;;;6.53;;
34433;SDS011;34290;48.562;13.384;2022-09-09T09:50:15;11.32;;;6.60;;
34433;SDS011;34290;48.562;13.384;2022-09-09T09:52:51;10.57;;;6.10;;
34433;SDS011;34290;48.562;13.384;2022-09-09T09:55:22;10.52;;;5.45;;
34433;SDS011;34290;48.562;13.384;2022-09-09T09:57:51;12.15;;;6.10;;
34433;SDS011;34290;48.562;13.384;2022-09-09T10:00:20;11.70;;;6.25;;
34433;SDS011;34290;48.562;13.384;2022-09-09T10:02:48;10.38;;;5.60;;
34433;SDS011;34290;48.562;13.384;2022-09-09T10:05:18;11.88;;;5.95;;
34433;SDS011;34290;48.562;13.384;2022-09-09T10:07:46;9.88;;;6.03;;
34433;SDS011;34290;48.562;13.384;2022-09-09T10:10:26;13.30;;;5.95;;
34433;SDS011;34290;48.562;13.384;2022-09-09T10:13:06;15.65;;;6.32;;
34433;SDS011;34290;48.562;13.384;2022-09-09T10:15:39;12.57;;;5.20;;
34433;SDS011;34290;48.562;13.384;2022-09-09T10:18:20;10.85;;;5.57;;
34433;SDS011;34290;48.562;13.384;2022-09-09T10:20:58;9.90;;;5.00;;
34433;SDS011;34290;48.562;13.384;2022-09-09T10:23:36;9.50;;;5.32;;
34433;SDS011;34290;48.562;13.384;2022-09-09T10:26:19;10.88;;;4.72;;
34433;SDS011;34290;48.562;13.384;2022-09-09T10:29:05;11.05;;;4.15;;
34433;SDS011;34290;48.562;13.384;2022-09-09T10:31:55;9.20;;;4.15;;
34433;SDS011;34290;48.562;13.384;2022-09-09T10:34:38;10.38;;;4.10;;
34433;SDS011;34290;48.562;13.384;2022-09-09T10:37:22;8.18;;;4.10;;
34433;SDS011;34290;48.562;13.384;2022-09-09T10:40:00;8.50;;;4.47;;
34433;SDS011;34290;48.562;13.384;2022-09-09T10:42:37;6.63;;;4.50;;
34433;SDS011;34290;48.562;13.384;2022-09-09T10:45:10;11.70;;;4.72;;
34433;SDS011;34290;48.562;13.384;2022-09-09T10:47:47;11.45;;;5.63;;
34433;SDS011;34290;48.562;13.384;2022-09-09T10:50:40;18.20;;;7.97;;
34433;SDS011;34290;48.562;13.384;2022-09-09T10:53:26;17.30;;;5.63;;
34433;SDS011;34290;48.562;13.384;2022-09-09T10:56:02;9.23;;;4.72;;
34433;SDS011;34290;48.562;13.384;2022-09-09T10:58:35;12.10;;;6.35;;
34433;SDS011;34290;48.562;13.384;2022-09-09T11:01:11;12.60;;;5.80;;
34433;SDS011;34290;48.562;13.384;2022-09-09T11:03:45;10.55;;;4.47;;
34433;SDS011;34290;48.562;13.384;2022-09-09T11:06:19;11.23;;;4.90;;
34433;SDS011;34290;48.562;13.384;2022-09-09T11:08:50;8.02;;;4.28;;
34433;SDS011;34290;48.562;13.384;2022-09-09T11:11:20;10.20;;;4.88;;
34433;SDS011;34290;48.562;13.384;2022-09-09T11:13:53;11.60;;;4.43;;
34433;SDS011;34290;48.562;13.384;2022-09-09T11:16:27;8.57;;;4.70;;
34433;SDS011;34290;48.562;13.384;2022-09-09T11:18:58;9.48;;;4.82;;
34433;SDS011;34290;48.562;13.384;2022-09-09T11:21:31;11.02;;;5.40;;
34433;SDS011;34290;48.562;13.384;2022-09-09T11:24:02;12.75;;;5.82;;
34433;SDS011;34290;48.562;13.384;2022-09-09T11:26:37;20.77;;;5.82;;
34433;SDS011;34290;48.562;13.384;2022-09-09T11:32:20;16.20;;;6.40;;
34433;SDS011;34290;48.562;13.384;2022-09-09T11:35:11;14.55;;;5.70;;
34433;SDS011;34290;48.562;13.384;2022-09-09T11:38:12;11.20;;;5.38;;
34433;SDS011;34290;48.562;13.384;2022-09-09T11:40:45;11.07;;;5.55;;
34433;SDS011;34290;48.562;13.384;2022-09-09T11:43:13;10.27;;;5.78;;
34433;SDS011;34290;48.562;13.384;2022-09-09T11:45:50;15.23;;;5.70;;
34433;SDS011;34290;48.562;13.384;2022-09-09T11:48:25;18.70;;;5.80;;
34433;SDS011;34290;48.562;13.384;2022-09-09T11:50:59;10.32;;;4.88;;
34433;SDS011;34290;48.562;13.384;2022-09-09T11:53:29;10.95;;;5.03;;
34433;SDS011;34290;48.562;13.384;2022-09-09T11:56:03;14.60;;;5.05;;
34433;SDS011;34290;48.562;13.384;2022-09-09T11:58:34;10.35;;;4.85;;
34433;SDS011;34290;48.562;13.384;2022-09-09T12:01:15;10.55;;;4.78;;
34433;SDS011;34290;48.562;13.384;2022-09-09T12:04:05;13.23;;;4.75;;
34433;SDS011;34290;48.562;13.384;2022-09-09T12:06:42;13.10;;;5.07;;
34433;SDS011;34290;48.562;13.384;2022-09-09T12:12:06;9.63;;;4.72;;
34433;SDS011;34290;48.562;13.384;2022-09-09T12:14:54;11.40;;;4.82;;
34433;SDS011;34290;48.562;13.384;2022-09-09T12:17:24;11.75;;;4.70;;
34433;SDS011;34290;48.562;13.384;2022-09-09T12:20:01;9.60;;;4.55;;
34433;SDS011;34290;48.562;13.384;2022-09-09T12:22:34;11.05;;;4.28;;
34433;SDS011;34290;48.562;13.384;2022-09-09T12:25:09;13.43;;;4.70;;
34433;SDS011;34290;48.562;13.384;2022-09-09T12:27:45;11.52;;;4.47;;
34433;SDS011;34290;48.562;13.384;2022-09-09T12:30:27;11.63;;;4.40;;
34433;SDS011;34290;48.562;13.384;2022-09-09T12:33:01;9.95;;;4.18;;
34433;SDS011;34290;48.562;13.384;2022-09-09T12:35:30;8.80;;;4.05;;
34433;SDS011;34290;48.562;13.384;2022-09-09T12:37:58;5.32;;;3.55;;
34433;SDS011;34290;48.562;13.384;2022-09-09T12:40:28;10.18;;;4.32;;
34433;SDS011;34290;48.562;13.384;2022-09-09T12:42:57;7.22;;;3.70;;
34433;SDS011;34290;48.562;13.384;2022-09-09T12:45:26;6.03;;;3.72;;
34433;SDS011;34290;48.562;13.384;2022-09-09T12:47:57;8.48;;;4.10;;
34433;SDS011;34290;48.562;13.384;2022-09-09T12:50:27;9.00;;;4.25;;
34433;SDS011;34290;48.562;13.384;2022-09-09T12:52:57;16.55;;;4.50;;
34433;SDS011;34290;48.562;13.384;2022-09-09T12:55:28;10.38;;;4.68;;
34433;SDS011;34290;48.562;13.384;2022-09-09T12:57:58;14.40;;;4.60;;
34433;SDS011;34290;48.562;13.384;2022-09-09T13:00:29;14.40;;;4.80;;
34433;SDS011;34290;48.562;13.384;2022-09-09T13:02:56;8.10;;;4.30;;
34433;SDS011;34290;48.562;13.384;2022-09-09T13:05:27;9.15;;;4.90;;
34433;SDS011;34290;48.562;13.384;2022-09-09T13:08:01;14.63;;;4.50;;
34433;SDS011;34290;48.562;13.384;2022-09-09T13:10:31;10.93;;;4.43;;
34433;SDS011;34290;48.562;13.384;2022-09-09T13:13:00;16.05;;;4.88;;
34433;SDS011;34290;48.562;13.384;2022-09-09T13:15:28;14.93;;;4.22;;
34433;SDS011;34290;48.562;13.384;2022-09-09T13:17:56;8.30;;;4.28;;
34433;SDS011;34290;48.562;13.384;2022-09-09T13:20:25;10.77;;;4.43;;
34433;SDS011;34290;48.562;13.384;2022-09-09T13:22:54;14.13;;;4.70;;
34433;SDS011;34290;48.562;13.384;2022-09-09T13:25:25;8.80;;;4.47;;
34433;SDS011;34290;48.562;13.384;2022-09-09T13:28:03;10.50;;;4.20;;
34433;SDS011;34290;48.562;13.384;2022-09-09T13:30:31;10.00;;;4.65;;
34433;SDS011;34290;48.562;13.384;2022-09-09T13:33:02;9.23;;;4.28;;
34433;SDS011;34290;48.562;13.384;2022-09-09T13:35:32;10.00;;;4.65;;
34433;SDS011;34290;48.562;13.384;2022-09-09T13:37:59;9.95;;;4.45;;
34433;SDS011;34290;48.562;13.384;2022-09-09T13:40:35;10.02;;;4.32;;
34433;SDS011;34290;48.562;13.384;2022-09-09T13:43:04;11.35;;;4.38;;
34433;SDS011;34290;48.562;13.384;2022-09-09T13:45:31;11.50;;;4.65;;
34433;SDS011;34290;48.562;13.384;2022-09-09T13:48:07;9.60;;;4.18;;
34433;SDS011;34290;48.562;13.384;2022-09-09T13:50:36;7.95;;;4.55;;
34433;SDS011;34290;48.562;13.384;2022-09-09T13:53:03;8.55;;;4.20;;
34433;SDS011;34290;48.562;13.384;2022-09-09T13:55:30;8.35;;;4.03;;
34433;SDS011;34290;48.562;13.384;2022-09-09T13:57:59;7.75;;;4.25;;
34433;SDS011;34290;48.562;13.384;2022-09-09T14:00:28;8.65;;;3.85;;
34433;SDS011;34290;48.562;13.384;2022-09-09T14:02:56;9.65;;;3.65;;
34433;SDS011;34290;48.562;13.384;2022-09-09T14:05:27;7.55;;;4.40;;
34433;SDS011;34290;48.562;13.384;2022-09-09T14:07:55;8.27;;;3.67;;
34433;SDS011;34290;48.562;13.384;2022-09-09T14:10:25;7.88;;;4.15;;
34433;SDS011;34290;48.562;13.384;2022-09-09T14:12:52;9.23;;;4.00;;
34433;SDS011;34290;48.562;13.384;2022-09-09T14:15:21;7.05;;;4.00;;
34433;SDS011;34290;48.562;13.384;2022-09-09T14:17:48;9.25;;;4.07;;
34433;SDS011;34290;48.562;13.384;2022-09-09T14:20:15;8.15;;;4.30;;
34433;SDS011;34290;48.562;13.384;2022-09-09T14:22:42;9.02;;;3.88;;
34433;SDS011;34290;48.562;13.384;2022-09-09T14:25:12;5.65;;;3.60;;
34433;SDS011;34290;48.562;13.384;2022-09-09T14:27:40;6.82;;;3.35;;
34433;SDS011;34290;48.562;13.384;2022-09-09T14:30:08;5.88;;;3.20;;
34433;SDS011;34290;48.562;13.384;2022-09-09T14:32:37;7.32;;;3.78;;
34433;SDS011;34290;48.562;13.384;2022-09-09T14:35:04;5.93;;;3.33;;
34433;SDS011;34290;48.562;13.384;2022-09-09T14:37:32;6.78;;;3.80;;
34433;SDS011;34290;48.562;13.384;2022-09-09T14:39:59;10.35;;;3.83;;
34433;SDS011;34290;48.562;13.384;2022-09-09T14:42:26;7.18;;;3.95;;
34433;SDS011;34290;48.562;13.384;2022-09-09T14:44:55;6.70;;;3.83;;
34433;SDS011;34290;48.562;13.384;2022-09-09T14:47:22;7.97;;;4.03;;
34433;SDS011;34290;48.562;13.384;2022-09-09T14:49:50;8.32;;;4.10;;
34433;SDS011;34290;48.562;13.384;2022-09-09T14:52:18;9.07;;;4.80;;
34433;SDS011;34290;48.562;13.384;2022-09-09T14:54:45;7.53;;;4.65;;